sensor_id;sensor_type;location;lat;lon;timestamp;pressure;altitude;pressure_sealevel;temperature;humidity
72961;BME280;61141;46.204;19.774;2023-04-10T00:02:51;101114.16;;;4.33;96.24
72961;BME280;61141;46.204;19.774;2023-04-10T00:05:55;101108.97;;;4.23;96.67
72961;BME280;61141;46.204;19.774;2023-04-10T00:08:58;101106.56;;;4.22;96.47
72961;BME280;61141;46.204;19.774;2023-04-10T00:12:01;101095.59;;;4.04;96.92
72961;BME280;61141;46.204;19.774;2023-04-10T00:15:04;101099.41;;;4.03;97.35
72961;BME280;61141;46.204;19.774;2023-04-10T00:18:08;101095.84;;;4.17;97.12
72961;BME280;61141;46.204;19.774;2023-04-10T00:21:10;101082.34;;;4.03;97.56
72961;BME280;61141;46.204;19.774;2023-04-10T00:24:14;101083.44;;;4.02;97.91
72961;BME280;61141;46.204;19.774;2023-04-10T00:27:17;101083.12;;;4.03;98.11
72961;BME280;61141;46.204;19.774;2023-04-10T00:30:20;101078.72;;;4.07;97.76
72961;BME280;61141;46.204;19.774;2023-04-10T00:33:23;101071.69;;;4.06;98.59
72961;BME280;61141;46.204;19.774;2023-04-10T00:36:26;101084.63;;;4.09;98.59
72961;BME280;61141;46.204;19.774;2023-04-10T00:39:29;101088.94;;;4.10;98.07
72961;BME280;61141;46.204;19.774;2023-04-10T00:42:32;101081.16;;;4.18;97.58
72961;BME280;61141;46.204;19.774;2023-04-10T00:45:35;101082.66;;;4.24;97.10
72961;BME280;61141;46.204;19.774;2023-04-10T00:48:38;101066.50;;;4.19;96.90
72961;BME280;61141;46.204;19.774;2023-04-10T00:51:42;101081.56;;;4.25;97.25
72961;BME280;61141;46.204;19.774;2023-04-10T00:54:45;101084.41;;;4.20;97.19
72961;BME280;61141;46.204;19.774;2023-04-10T00:57:48;101079.47;;;4.22;97.40
72961;BME280;61141;46.204;19.774;2023-04-10T01:00:51;101072.81;;;4.28;97.33
72961;BME280;61141;46.204;19.774;2023-04-10T01:03:54;101052.34;;;4.22;97.05
72961;BME280;61141;46.204;19.774;2023-04-10T01:07:10;101065.16;;;4.30;97.32
72961;BME280;61141;46.204;19.774;2023-04-10T01:13:48;101064.16;;;4.26;97.22
72961;BME280;61141;46.204;19.774;2023-04-10T01:16:56;101060.59;;;4.17;97.71
72961;BME280;61141;46.204;19.774;2023-04-10T01:20:11;101056.16;;;4.21;97.55
72961;BME280;61141;46.204;19.774;2023-04-10T01:30:03;101054.72;;;4.23;97.60
72961;BME280;61141;46.204;19.774;2023-04-10T01:33:11;101040.16;;;4.10;98.14
72961;BME280;61141;46.204;19.774;2023-04-10T01:36:27;101052.34;;;4.22;97.94
72961;BME280;61141;46.204;19.774;2023-04-10T01:39:36;101055.19;;;4.17;97.92
72961;BME280;61141;46.204;19.774;2023-04-10T01:42:50;101051.34;;;4.18;97.70
72961;BME280;61141;46.204;19.774;2023-04-10T01:45:56;101050.37;;;4.13;98.10
72961;BME280;61141;46.204;19.774;2023-04-10T01:49:00;101054.94;;;4.04;98.31
72961;BME280;61141;46.204;19.774;2023-04-10T01:52:05;101049.03;;;4.02;98.65
72961;BME280;61141;46.204;19.774;2023-04-10T01:55:09;101039.28;;;4.01;98.39
72961;BME280;61141;46.204;19.774;2023-04-10T01:58:13;101043.41;;;3.99;98.40
72961;BME280;61141;46.204;19.774;2023-04-10T02:01:18;101031.69;;;3.90;98.52
72961;BME280;61141;46.204;19.774;2023-04-10T02:04:32;101026.41;;;3.85;98.75
72961;BME280;61141;46.204;19.774;2023-04-10T02:08:01;101043.66;;;3.89;98.92
72961;BME280;61141;46.204;19.774;2023-04-10T02:11:14;101040.75;;;4.07;98.23
72961;BME280;61141;46.204;19.774;2023-04-10T02:14:20;101032.50;;;3.90;99.07
72961;BME280;61141;46.204;19.774;2023-04-10T02:17:28;101030.78;;;3.94;98.44
72961;BME280;61141;46.204;19.774;2023-04-10T02:20:32;101030.66;;;3.99;98.20
72961;BME280;61141;46.204;19.774;2023-04-10T02:23:35;101034.91;;;3.92;98.18
72961;BME280;61141;46.204;19.774;2023-04-10T02:26:50;101035.22;;;3.90;98.71
72961;BME280;61141;46.204;19.774;2023-04-10T02:29:53;101036.06;;;3.77;99.40
72961;BME280;61141;46.204;19.774;2023-04-10T02:32:56;101033.03;;;3.79;99.12
72961;BME280;61141;46.204;19.774;2023-04-10T02:36:00;101020.44;;;3.74;99.34
72961;BME280;61141;46.204;19.774;2023-04-10T02:39:04;101031.69;;;3.68;99.37
72961;BME280;61141;46.204;19.774;2023-04-10T02:42:07;101021.91;;;3.58;99.93
72961;BME280;61141;46.204;19.774;2023-04-10T02:45:11;101023.87;;;3.66;99.68
72961;BME280;61141;46.204;19.774;2023-04-10T02:48:14;101026.81;;;3.56;100.00
72961;BME280;61141;46.204;19.774;2023-04-10T02:51:17;101021.28;;;3.61;99.52
72961;BME280;61141;46.204;19.774;2023-04-10T02:54:20;101022.38;;;3.60;99.74
72961;BME280;61141;46.204;19.774;2023-04-10T02:57:24;101018.78;;;3.51;100.00
72961;BME280;61141;46.204;19.774;2023-04-10T03:00:27;101013.88;;;3.53;99.63
72961;BME280;61141;46.204;19.774;2023-04-10T03:03:33;101013.59;;;3.41;100.00
72961;BME280;61141;46.204;19.774;2023-04-10T03:06:35;101003.78;;;3.45;99.84
72961;BME280;61141;46.204;19.774;2023-04-10T03:09:39;101010.09;;;3.40;99.99
72961;BME280;61141;46.204;19.774;2023-04-10T03:12:41;101008.91;;;3.33;100.00
72961;BME280;61141;46.204;19.774;2023-04-10T03:15:45;101006.94;;;3.25;100.00
72961;BME280;61141;46.204;19.774;2023-04-10T03:18:49;101015.94;;;3.34;100.00
72961;BME280;61141;46.204;19.774;2023-04-10T03:21:52;101013.25;;;3.34;100.00
72961;BME280;61141;46.204;19.774;2023-04-10T03:24:55;101014.22;;;3.38;100.00
72961;BME280;61141;46.204;19.774;2023-04-10T03:27:58;101013.13;;;3.39;100.00
72961;BME280;61141;46.204;19.774;2023-04-10T03:31:03;101017.03;;;3.33;100.00
72961;BME280;61141;46.204;19.774;2023-04-10T03:34:07;101017.75;;;3.25;100.00
72961;BME280;61141;46.204;19.774;2023-04-10T03:37:09;101020.16;;;3.26;100.00
72961;BME280;61141;46.204;19.774;2023-04-10T03:40:12;101014.66;;;3.31;100.00
72961;BME280;61141;46.204;19.774;2023-04-10T03:43:15;101024.06;;;3.34;100.00
72961;BME280;61141;46.204;19.774;2023-04-10T03:46:19;101027.97;;;3.28;100.00
72961;BME280;61141;46.204;19.774;2023-04-10T03:49:21;101019.53;;;3.29;100.00
72961;BME280;61141;46.204;19.774;2023-04-10T03:52:29;101028.69;;;3.33;100.00
72961;BME280;61141;46.204;19.774;2023-04-10T03:55:33;101032.22;;;3.20;100.00
72961;BME280;61141;46.204;19.774;2023-04-10T03:58:36;101031.28;;;3.25;100.00
72961;BME280;61141;46.204;19.774;2023-04-10T04:01:39;101033.78;;;3.35;100.00
72961;BME280;61141;46.204;19.774;2023-04-10T04:04:43;101032.44;;;3.46;100.00
72961;BME280;61141;46.204;19.774;2023-04-10T04:07:47;101040.56;;;3.46;99.74
72961;BME280;61141;46.204;19.774;2023-04-10T04:10:51;101040.91;;;3.31;100.00
72961;BME280;61141;46.204;19.774;2023-04-10T04:13:55;101050.00;;;3.35;100.00
72961;BME280;61141;46.204;19.774;2023-04-10T04:16:58;101030.19;;;3.26;100.00
72961;BME280;61141;46.204;19.774;2023-04-10T04:20:02;101058.75;;;3.32;100.00
72961;BME280;61141;46.204;19.774;2023-04-10T04:23:08;101052.62;;;3.40;100.00
72961;BME280;61141;46.204;19.774;2023-04-10T04:26:11;101046.41;;;3.39;99.88
72961;BME280;61141;46.204;19.774;2023-04-10T04:29:14;101045.97;;;3.46;99.83
72961;BME280;61141;46.204;19.774;2023-04-10T04:32:17;101044.41;;;3.45;99.49
72961;BME280;61141;46.204;19.774;2023-04-10T04:35:25;101052.22;;;3.46;99.60
72961;BME280;61141;46.204;19.774;2023-04-10T04:38:29;101050.37;;;3.55;99.38
72961;BME280;61141;46.204;19.774;2023-04-10T04:41:33;101059.78;;;3.72;98.63
72961;BME280;61141;46.204;19.774;2023-04-10T04:44:37;101061.47;;;3.68;99.05
72961;BME280;61141;46.204;19.774;2023-04-10T04:47:41;101059.72;;;3.85;98.10
72961;BME280;61141;46.204;19.774;2023-04-10T04:50:45;101053.81;;;3.83;97.99
72961;BME280;61141;46.204;19.774;2023-04-10T04:53:48;101070.56;;;3.85;98.15
72961;BME280;61141;46.204;19.774;2023-04-10T04:56:56;101065.62;;;3.87;98.29
72961;BME280;61141;46.204;19.774;2023-04-10T05:00:01;101069.72;;;3.98;97.84
72961;BME280;61141;46.204;19.774;2023-04-10T05:03:09;101067.87;;;4.07;97.04
72961;BME280;61141;46.204;19.774;2023-04-10T05:06:12;101078.31;;;4.23;96.26
72961;BME280;61141;46.204;19.774;2023-04-10T05:09:18;101062.94;;;4.32;95.87
72961;BME280;61141;46.204;19.774;2023-04-10T05:12:21;101077.28;;;4.32;95.62
72961;BME280;61141;46.204;19.774;2023-04-10T05:15:24;101075.88;;;4.35;95.23
72961;BME280;61141;46.204;19.774;2023-04-10T05:18:27;101080.59;;;4.51;94.59
72961;BME280;61141;46.204;19.774;2023-04-10T05:21:30;101081.53;;;4.47;94.35
72961;BME280;61141;46.204;19.774;2023-04-10T05:24:34;101081.75;;;4.59;94.23
72961;BME280;61141;46.204;19.774;2023-04-10T05:27:37;101088.34;;;4.66;93.81
72961;BME280;61141;46.204;19.774;2023-04-10T05:30:41;101088.66;;;4.65;93.88
72961;BME280;61141;46.204;19.774;2023-04-10T05:33:44;101091.81;;;4.58;93.95
72961;BME280;61141;46.204;19.774;2023-04-10T05:36:47;101097.66;;;4.74;93.58
72961;BME280;61141;46.204;19.774;2023-04-10T05:39:50;101102.31;;;4.82;93.44
72961;BME280;61141;46.204;19.774;2023-04-10T05:42:54;101092.47;;;4.95;92.45
72961;BME280;61141;46.204;19.774;2023-04-10T05:45:56;101097.13;;;5.03;92.79
72961;BME280;61141;46.204;19.774;2023-04-10T05:49:00;101103.09;;;5.22;91.71
72961;BME280;61141;46.204;19.774;2023-04-10T05:52:04;101109.97;;;5.19;91.31
72961;BME280;61141;46.204;19.774;2023-04-10T05:55:07;101105.91;;;5.48;90.03
72961;BME280;61141;46.204;19.774;2023-04-10T05:58:12;101097.47;;;5.58;89.68
72961;BME280;61141;46.204;19.774;2023-04-10T06:01:16;101101.78;;;5.76;89.63
72961;BME280;61141;46.204;19.774;2023-04-10T06:04:20;101104.41;;;5.98;89.67
72961;BME280;61141;46.204;19.774;2023-04-10T06:07:24;101106.00;;;5.90;89.05
72961;BME280;61141;46.204;19.774;2023-04-10T06:10:29;101105.69;;;6.09;88.76
72961;BME280;61141;46.204;19.774;2023-04-10T06:13:32;101108.88;;;6.28;88.38
72961;BME280;61141;46.204;19.774;2023-04-10T06:16:36;101096.72;;;6.26;88.13
72961;BME280;61141;46.204;19.774;2023-04-10T06:19:39;101112.53;;;6.49;87.93
72961;BME280;61141;46.204;19.774;2023-04-10T06:22:42;101108.16;;;6.66;86.75
72961;BME280;61141;46.204;19.774;2023-04-10T06:25:45;101103.62;;;6.87;86.17
72961;BME280;61141;46.204;19.774;2023-04-10T06:28:48;101107.03;;;7.13;86.36
72961;BME280;61141;46.204;19.774;2023-04-10T06:31:51;101116.25;;;7.29;84.52
72961;BME280;61141;46.204;19.774;2023-04-10T06:34:54;101120.56;;;7.39;84.37
72961;BME280;61141;46.204;19.774;2023-04-10T06:37:57;101120.97;;;7.49;83.63
72961;BME280;61141;46.204;19.774;2023-04-10T06:41:01;101120.72;;;7.63;82.07
72961;BME280;61141;46.204;19.774;2023-04-10T06:44:03;101119.25;;;7.95;82.03
72961;BME280;61141;46.204;19.774;2023-04-10T06:47:06;101127.97;;;8.09;79.75
72961;BME280;61141;46.204;19.774;2023-04-10T06:50:10;101100.69;;;8.09;78.50
72961;BME280;61141;46.204;19.774;2023-04-10T06:53:13;101114.47;;;8.33;77.65
72961;BME280;61141;46.204;19.774;2023-04-10T06:56:16;101116.38;;;8.53;77.75
72961;BME280;61141;46.204;19.774;2023-04-10T06:59:19;101117.28;;;8.57;76.84
72961;BME280;61141;46.204;19.774;2023-04-10T07:02:21;101111.56;;;8.50;75.42
72961;BME280;61141;46.204;19.774;2023-04-10T07:05:25;101113.81;;;8.48;75.01
72961;BME280;61141;46.204;19.774;2023-04-10T07:08:27;101106.16;;;8.74;75.56
72961;BME280;61141;46.204;19.774;2023-04-10T07:11:31;101115.50;;;8.73;74.87
72961;BME280;61141;46.204;19.774;2023-04-10T07:14:33;101110.88;;;8.98;74.46
72961;BME280;61141;46.204;19.774;2023-04-10T07:17:37;101105.50;;;8.77;74.30
72961;BME280;61141;46.204;19.774;2023-04-10T07:20:40;101117.97;;;9.11;73.26
72961;BME280;61141;46.204;19.774;2023-04-10T07:23:43;101115.69;;;9.25;72.97
72961;BME280;61141;46.204;19.774;2023-04-10T07:26:46;101107.81;;;9.48;73.46
72961;BME280;61141;46.204;19.774;2023-04-10T07:29:52;101114.19;;;9.76;72.18
72961;BME280;61141;46.204;19.774;2023-04-10T07:32:55;101109.75;;;9.60;71.40
72961;BME280;61141;46.204;19.774;2023-04-10T07:35:59;101110.56;;;9.60;70.15
72961;BME280;61141;46.204;19.774;2023-04-10T07:39:04;101107.94;;;10.03;70.50
72961;BME280;61141;46.204;19.774;2023-04-10T07:42:09;101111.44;;;9.88;69.49
72961;BME280;61141;46.204;19.774;2023-04-10T07:45:12;101112.81;;;9.82;67.72
72961;BME280;61141;46.204;19.774;2023-04-10T07:48:15;101119.16;;;9.86;68.80
72961;BME280;61141;46.204;19.774;2023-04-10T07:51:18;101108.91;;;9.83;67.66
72961;BME280;61141;46.204;19.774;2023-04-10T07:54:21;101106.56;;;10.22;68.15
72961;BME280;61141;46.204;19.774;2023-04-10T07:57:24;101098.03;;;10.39;65.45
72961;BME280;61141;46.204;19.774;2023-04-10T08:00:27;101083.72;;;10.73;65.93
72961;BME280;61141;46.204;19.774;2023-04-10T08:03:39;101101.59;;;10.98;64.03
72961;BME280;61141;46.204;19.774;2023-04-10T08:06:43;101090.87;;;11.25;63.49
72961;BME280;61141;46.204;19.774;2023-04-10T08:09:45;101096.00;;;11.42;63.91
72961;BME280;61141;46.204;19.774;2023-04-10T08:12:48;101095.38;;;11.48;62.77
72961;BME280;61141;46.204;19.774;2023-04-10T08:15:51;101098.16;;;11.67;62.29
72961;BME280;61141;46.204;19.774;2023-04-10T08:18:55;101094.09;;;11.61;61.44
72961;BME280;61141;46.204;19.774;2023-04-10T08:21:59;101089.06;;;11.79;61.37
72961;BME280;61141;46.204;19.774;2023-04-10T08:25:02;101087.34;;;12.09;60.08
72961;BME280;61141;46.204;19.774;2023-04-10T08:28:05;101077.37;;;12.01;59.88
72961;BME280;61141;46.204;19.774;2023-04-10T08:31:08;101074.66;;;12.24;59.60
72961;BME280;61141;46.204;19.774;2023-04-10T08:34:11;101083.63;;;12.21;57.79
72961;BME280;61141;46.204;19.774;2023-04-10T08:37:13;101074.37;;;12.48;56.78
72961;BME280;61141;46.204;19.774;2023-04-10T08:40:17;101080.63;;;12.26;56.18
72961;BME280;61141;46.204;19.774;2023-04-10T08:43:20;101077.31;;;12.59;57.29
72961;BME280;61141;46.204;19.774;2023-04-10T08:46:23;101062.75;;;12.35;57.40
72961;BME280;61141;46.204;19.774;2023-04-10T08:50:27;101062.41;;;12.60;57.68
72961;BME280;61141;46.204;19.774;2023-04-10T08:53:12;101064.00;;;12.61;56.96
72961;BME280;61141;46.204;19.774;2023-04-10T08:56:17;101051.91;;;12.88;55.79
72961;BME280;61141;46.204;19.774;2023-04-10T08:59:21;101058.50;;;13.06;55.48
72961;BME280;61141;46.204;19.774;2023-04-10T09:02:24;101072.25;;;12.83;53.87
72961;BME280;61141;46.204;19.774;2023-04-10T09:05:27;101054.47;;;12.77;53.25
72961;BME280;61141;46.204;19.774;2023-04-10T09:08:31;101048.44;;;12.91;53.03
72961;BME280;61141;46.204;19.774;2023-04-10T09:12:01;101050.44;;;12.94;53.54
72961;BME280;61141;46.204;19.774;2023-04-10T09:15:06;101037.28;;;13.29;52.26
72961;BME280;61141;46.204;19.774;2023-04-10T09:18:09;101037.19;;;13.22;50.75
72961;BME280;61141;46.204;19.774;2023-04-10T09:21:16;101043.53;;;13.52;51.52
72961;BME280;61141;46.204;19.774;2023-04-10T09:24:20;101037.97;;;13.49;50.56
72961;BME280;61141;46.204;19.774;2023-04-10T09:27:33;101039.00;;;13.67;50.36
72961;BME280;61141;46.204;19.774;2023-04-10T09:30:41;101036.47;;;13.85;51.16
72961;BME280;61141;46.204;19.774;2023-04-10T09:33:44;101033.59;;;13.74;50.55
72961;BME280;61141;46.204;19.774;2023-04-10T09:36:56;101027.22;;;13.40;49.55
72961;BME280;61141;46.204;19.774;2023-04-10T09:39:59;101025.06;;;13.83;49.41
72961;BME280;61141;46.204;19.774;2023-04-10T09:46:27;101029.87;;;13.93;48.21
72961;BME280;61141;46.204;19.774;2023-04-10T09:49:44;101016.28;;;14.07;47.26
72961;BME280;61141;46.204;19.774;2023-04-10T09:52:56;101013.00;;;14.28;48.08
72961;BME280;61141;46.204;19.774;2023-04-10T09:55:59;101020.25;;;14.09;47.63
72961;BME280;61141;46.204;19.774;2023-04-10T09:59:02;101008.69;;;13.97;48.33
72961;BME280;61141;46.204;19.774;2023-04-10T10:02:08;101014.03;;;13.83;46.72
72961;BME280;61141;46.204;19.774;2023-04-10T10:05:11;101009.53;;;14.01;45.43
72961;BME280;61141;46.204;19.774;2023-04-10T10:08:15;101008.41;;;14.42;45.15
72961;BME280;61141;46.204;19.774;2023-04-10T10:11:20;101007.00;;;14.59;46.18
72961;BME280;61141;46.204;19.774;2023-04-10T10:14:26;101002.28;;;14.23;45.33
72961;BME280;61141;46.204;19.774;2023-04-10T10:17:38;100990.78;;;14.50;44.59
72961;BME280;61141;46.204;19.774;2023-04-10T10:20:45;100996.37;;;14.61;43.56
72961;BME280;61141;46.204;19.774;2023-04-10T10:23:49;100976.19;;;14.46;44.59
72961;BME280;61141;46.204;19.774;2023-04-10T10:26:57;100980.25;;;15.14;44.37
72961;BME280;61141;46.204;19.774;2023-04-10T10:30:02;100985.34;;;15.05;45.21
72961;BME280;61141;46.204;19.774;2023-04-10T10:33:17;100995.31;;;15.23;43.91
72961;BME280;61141;46.204;19.774;2023-04-10T10:36:21;100988.75;;;14.88;42.64
72961;BME280;61141;46.204;19.774;2023-04-10T10:39:56;100994.66;;;14.90;43.92
72961;BME280;61141;46.204;19.774;2023-04-10T10:46:34;100987.56;;;14.89;42.95
72961;BME280;61141;46.204;19.774;2023-04-10T10:49:59;100983.03;;;14.66;44.45
72961;BME280;61141;46.204;19.774;2023-04-10T10:53:02;100971.69;;;13.94;42.88
72961;BME280;61141;46.204;19.774;2023-04-10T11:06:13;100973.69;;;15.36;43.00
72961;BME280;61141;46.204;19.774;2023-04-10T11:09:46;100966.31;;;14.93;41.14
72961;BME280;61141;46.204;19.774;2023-04-10T11:13:15;100968.91;;;14.31;42.21
72961;BME280;61141;46.204;19.774;2023-04-10T11:16:19;100962.84;;;14.15;43.35
72961;BME280;61141;46.204;19.774;2023-04-10T11:19:23;100957.47;;;14.69;42.93
72961;BME280;61141;46.204;19.774;2023-04-10T11:22:28;100950.56;;;14.93;42.65
72961;BME280;61141;46.204;19.774;2023-04-10T11:25:46;100946.19;;;15.54;41.37
72961;BME280;61141;46.204;19.774;2023-04-10T11:28:50;100949.00;;;15.71;41.29
72961;BME280;61141;46.204;19.774;2023-04-10T11:32:03;100940.00;;;15.85;38.76
72961;BME280;61141;46.204;19.774;2023-04-10T11:35:07;100945.03;;;14.97;38.72
72961;BME280;61141;46.204;19.774;2023-04-10T11:38:15;100944.78;;;14.58;38.38
72961;BME280;61141;46.204;19.774;2023-04-10T11:41:18;100941.50;;;14.45;38.87
72961;BME280;61141;46.204;19.774;2023-04-10T11:47:27;100935.66;;;15.08;39.79
72961;BME280;61141;46.204;19.774;2023-04-10T11:50:30;100927.38;;;15.91;38.73
72961;BME280;61141;46.204;19.774;2023-04-10T11:53:38;100924.22;;;15.82;37.96
72961;BME280;61141;46.204;19.774;2023-04-10T11:56:42;100920.56;;;15.53;37.74
72961;BME280;61141;46.204;19.774;2023-04-10T11:59:49;100914.63;;;14.86;37.78
72961;BME280;61141;46.204;19.774;2023-04-10T12:02:52;100903.06;;;14.66;37.49
72961;BME280;61141;46.204;19.774;2023-04-10T12:05:56;100909.91;;;15.59;38.11
72961;BME280;61141;46.204;19.774;2023-04-10T12:08:59;100887.16;;;16.11;37.92
72961;BME280;61141;46.204;19.774;2023-04-10T12:12:03;100897.28;;;15.58;39.57
72961;BME280;61141;46.204;19.774;2023-04-10T12:15:27;100903.41;;;15.19;40.45
72961;BME280;61141;46.204;19.774;2023-04-10T12:18:30;100893.09;;;15.09;41.60
72961;BME280;61141;46.204;19.774;2023-04-10T12:21:37;100893.34;;;14.83;41.40
72961;BME280;61141;46.204;19.774;2023-04-10T12:24:48;100896.56;;;14.92;41.85
72961;BME280;61141;46.204;19.774;2023-04-10T12:27:52;100878.59;;;15.23;42.01
72961;BME280;61141;46.204;19.774;2023-04-10T12:30:55;100877.56;;;15.56;41.13
72961;BME280;61141;46.204;19.774;2023-04-10T12:33:59;100869.00;;;15.03;42.25
72961;BME280;61141;46.204;19.774;2023-04-10T12:37:02;100855.66;;;15.05;42.44
72961;BME280;61141;46.204;19.774;2023-04-10T12:40:06;100878.13;;;15.14;42.67
72961;BME280;61141;46.204;19.774;2023-04-10T12:43:09;100860.75;;;14.45;44.05
72961;BME280;61141;46.204;19.774;2023-04-10T12:46:25;100874.19;;;14.50;44.98
72961;BME280;61141;46.204;19.774;2023-04-10T12:49:29;100868.22;;;14.41;45.75
72961;BME280;61141;46.204;19.774;2023-04-10T12:52:32;100894.66;;;14.08;45.60
72961;BME280;61141;46.204;19.774;2023-04-10T12:55:35;100868.34;;;14.14;45.17
72961;BME280;61141;46.204;19.774;2023-04-10T12:58:39;100865.66;;;14.18;44.83
72961;BME280;61141;46.204;19.774;2023-04-10T13:01:44;100856.97;;;14.16;46.03
72961;BME280;61141;46.204;19.774;2023-04-10T13:04:46;100865.28;;;14.23;47.90
72961;BME280;61141;46.204;19.774;2023-04-10T13:07:49;100876.94;;;14.06;51.52
72961;BME280;61141;46.204;19.774;2023-04-10T13:10:54;100881.28;;;13.33;57.06
72961;BME280;61141;46.204;19.774;2023-04-10T13:13:59;100886.91;;;12.88;59.90
72961;BME280;61141;46.204;19.774;2023-04-10T13:17:02;100885.66;;;13.08;60.76
72961;BME280;61141;46.204;19.774;2023-04-10T13:20:05;100896.12;;;12.99;60.62
72961;BME280;61141;46.204;19.774;2023-04-10T13:23:08;100901.63;;;12.73;61.55
72961;BME280;61141;46.204;19.774;2023-04-10T13:26:11;100905.41;;;12.65;63.07
72961;BME280;61141;46.204;19.774;2023-04-10T13:29:14;100896.53;;;12.49;64.29
72961;BME280;61141;46.204;19.774;2023-04-10T13:32:17;100873.59;;;12.90;62.31
72961;BME280;61141;46.204;19.774;2023-04-10T13:35:20;100878.94;;;13.35;61.95
72961;BME280;61141;46.204;19.774;2023-04-10T13:38:23;100877.25;;;12.71;60.97
72961;BME280;61141;46.204;19.774;2023-04-10T13:41:26;100875.97;;;12.65;60.74
72961;BME280;61141;46.204;19.774;2023-04-10T13:44:29;100871.44;;;12.50;61.63
72961;BME280;61141;46.204;19.774;2023-04-10T13:47:32;100868.19;;;12.67;61.32
72961;BME280;61141;46.204;19.774;2023-04-10T13:50:35;100863.09;;;12.69;61.36
72961;BME280;61141;46.204;19.774;2023-04-10T13:53:37;100853.44;;;12.53;62.13
72961;BME280;61141;46.204;19.774;2023-04-10T13:56:40;100872.19;;;12.47;62.30
72961;BME280;61141;46.204;19.774;2023-04-10T13:59:43;100867.47;;;12.48;61.25
72961;BME280;61141;46.204;19.774;2023-04-10T14:02:46;100855.91;;;12.61;61.11
72961;BME280;61141;46.204;19.774;2023-04-10T14:05:49;100852.78;;;12.36;61.13
72961;BME280;61141;46.204;19.774;2023-04-10T14:08:54;100870.56;;;12.43;59.58
72961;BME280;61141;46.204;19.774;2023-04-10T14:11:57;100846.84;;;12.34;60.66
72961;BME280;61141;46.204;19.774;2023-04-10T14:15:00;100839.78;;;12.33;60.71
72961;BME280;61141;46.204;19.774;2023-04-10T14:18:04;100827.94;;;12.29;61.06
72961;BME280;61141;46.204;19.774;2023-04-10T14:21:07;100836.19;;;12.56;60.60
72961;BME280;61141;46.204;19.774;2023-04-10T14:24:10;100835.84;;;12.34;60.20
72961;BME280;61141;46.204;19.774;2023-04-10T14:27:13;100830.09;;;12.43;60.18
72961;BME280;61141;46.204;19.774;2023-04-10T14:30:16;100815.53;;;12.39;59.80
72961;BME280;61141;46.204;19.774;2023-04-10T14:33:19;100821.66;;;12.55;58.96
72961;BME280;61141;46.204;19.774;2023-04-10T14:36:22;100821.97;;;12.50;59.12
72961;BME280;61141;46.204;19.774;2023-04-10T14:39:25;100822.97;;;12.38;58.97
72961;BME280;61141;46.204;19.774;2023-04-10T14:42:29;100817.81;;;12.33;59.07
72961;BME280;61141;46.204;19.774;2023-04-10T14:45:32;100816.56;;;12.57;59.62
72961;BME280;61141;46.204;19.774;2023-04-10T14:48:34;100814.62;;;12.58;58.91
72961;BME280;61141;46.204;19.774;2023-04-10T14:51:37;100802.16;;;12.64;58.99
72961;BME280;61141;46.204;19.774;2023-04-10T14:54:41;100802.22;;;12.41;58.72
72961;BME280;61141;46.204;19.774;2023-04-10T14:57:44;100814.75;;;12.38;59.46
72961;BME280;61141;46.204;19.774;2023-04-10T15:00:47;100796.34;;;12.16;58.35
72961;BME280;61141;46.204;19.774;2023-04-10T15:03:52;100804.91;;;12.11;58.87
72961;BME280;61141;46.204;19.774;2023-04-10T15:06:55;100794.25;;;12.10;58.96
72961;BME280;61141;46.204;19.774;2023-04-10T15:09:58;100805.78;;;11.93;59.81
72961;BME280;61141;46.204;19.774;2023-04-10T15:13:01;100793.84;;;11.85;60.49
72961;BME280;61141;46.204;19.774;2023-04-10T15:16:05;100784.16;;;11.91;60.92
72961;BME280;61141;46.204;19.774;2023-04-10T15:19:09;100774.78;;;11.92;60.99
72961;BME280;61141;46.204;19.774;2023-04-10T15:22:13;100775.94;;;11.91;61.08
72961;BME280;61141;46.204;19.774;2023-04-10T15:25:16;100770.41;;;12.14;61.15
72961;BME280;61141;46.204;19.774;2023-04-10T15:28:19;100767.19;;;12.08;60.79
72961;BME280;61141;46.204;19.774;2023-04-10T15:31:22;100760.09;;;12.07;60.90
72961;BME280;61141;46.204;19.774;2023-04-10T15:34:26;100763.16;;;12.02;61.93
72961;BME280;61141;46.204;19.774;2023-04-10T15:37:28;100756.09;;;12.01;61.80
72961;BME280;61141;46.204;19.774;2023-04-10T15:40:31;100762.50;;;12.09;61.45
72961;BME280;61141;46.204;19.774;2023-04-10T15:43:34;100760.34;;;11.99;61.90
72961;BME280;61141;46.204;19.774;2023-04-10T15:46:37;100758.56;;;12.10;61.73
72961;BME280;61141;46.204;19.774;2023-04-10T15:49:40;100750.38;;;12.13;62.15
72961;BME280;61141;46.204;19.774;2023-04-10T15:52:43;100754.59;;;12.07;62.05
72961;BME280;61141;46.204;19.774;2023-04-10T15:55:46;100739.78;;;12.12;62.49
72961;BME280;61141;46.204;19.774;2023-04-10T15:58:49;100747.88;;;12.01;62.82
72961;BME280;61141;46.204;19.774;2023-04-10T16:01:52;100755.34;;;12.04;63.26
72961;BME280;61141;46.204;19.774;2023-04-10T16:04:55;100741.91;;;11.96;63.23
72961;BME280;61141;46.204;19.774;2023-04-10T16:07:58;100743.78;;;11.92;63.07
72961;BME280;61141;46.204;19.774;2023-04-10T16:11:01;100743.41;;;11.93;63.20
72961;BME280;61141;46.204;19.774;2023-04-10T16:14:03;100738.22;;;11.88;62.79
72961;BME280;61141;46.204;19.774;2023-04-10T16:17:06;100729.88;;;11.81;62.79
72961;BME280;61141;46.204;19.774;2023-04-10T16:20:09;100727.22;;;11.85;62.76
72961;BME280;61141;46.204;19.774;2023-04-10T16:23:13;100738.13;;;11.81;63.24
72961;BME280;61141;46.204;19.774;2023-04-10T16:26:15;100730.78;;;11.89;62.96
72961;BME280;61141;46.204;19.774;2023-04-10T16:29:20;100725.28;;;11.89;63.42